sensor_id;sensor_type;location;lat;lon;timestamp;pressure;altitude;pressure_sealevel;temperature
62930;BMP280;49036;42.782;23.108;2023-04-24T00:00:01;-14264.03;;;6.69
62930;BMP280;49036;42.782;23.108;2023-04-24T00:02:30;-14261.09;;;6.60
62930;BMP280;49036;42.782;23.108;2023-04-24T00:04:56;-14263.69;;;6.68
62930;BMP280;49036;42.782;23.108;2023-04-24T00:07:22;-14264.38;;;6.70
62930;BMP280;49036;42.782;23.108;2023-04-24T00:09:47;-14265.75;;;6.74
62930;BMP280;49036;42.782;23.108;2023-04-24T00:12:13;-14268.16;;;6.81
62930;BMP280;49036;42.782;23.108;2023-04-24T00:14:39;-14271.09;;;6.90
62930;BMP280;49036;42.782;23.108;2023-04-24T00:17:04;-14273.88;;;6.98
62930;BMP280;49036;42.782;23.108;2023-04-24T00:19:30;-14277.16;;;7.08
62930;BMP280;49036;42.782;23.108;2023-04-24T00:21:55;-14277.16;;;7.08
62930;BMP280;49036;42.782;23.108;2023-04-24T00:24:21;-14281.81;;;7.21
62930;BMP280;49036;42.782;23.108;2023-04-24T00:26:46;-14280.44;;;7.17
62930;BMP280;49036;42.782;23.108;2023-04-24T00:29:12;-14279.06;;;7.13
62930;BMP280;49036;42.782;23.108;2023-04-24T00:31:37;-14280.44;;;7.17
62930;BMP280;49036;42.782;23.108;2023-04-24T00:34:03;-14278.19;;;7.11
62930;BMP280;49036;42.782;23.108;2023-04-24T00:36:30;-14275.94;;;7.04
62930;BMP280;49036;42.782;23.108;2023-04-24T00:38:56;-14274.41;;;6.99
62930;BMP280;49036;42.782;23.108;2023-04-24T00:41:23;-14273.69;;;6.97
62930;BMP280;49036;42.782;23.108;2023-04-24T00:43:49;-14272.50;;;6.94
62930;BMP280;49036;42.782;23.108;2023-04-24T00:46:16;-14270.06;;;6.87
62930;BMP280;49036;42.782;23.108;2023-04-24T00:48:42;-14269.56;;;6.85
62930;BMP280;49036;42.782;23.108;2023-04-24T00:51:08;-14268.16;;;6.81
62930;BMP280;49036;42.782;23.108;2023-04-24T00:53:34;-14264.72;;;6.71
62930;BMP280;49036;42.782;23.108;2023-04-24T00:55:59;-14260.38;;;6.58
62930;BMP280;49036;42.782;23.108;2023-04-24T00:58:26;-14257.97;;;6.51
62930;BMP280;49036;42.782;23.108;2023-04-24T01:00:51;-14256.41;;;6.47
62930;BMP280;49036;42.782;23.108;2023-04-24T01:03:22;-14254.53;;;6.41
62930;BMP280;49036;42.782;23.108;2023-04-24T01:05:50;-14252.63;;;6.35
62930;BMP280;49036;42.782;23.108;2023-04-24T01:08:16;-14253.66;;;6.38
62930;BMP280;49036;42.782;23.108;2023-04-24T01:10:43;-14256.25;;;6.46
62930;BMP280;49036;42.782;23.108;2023-04-24T01:13:09;-14254.69;;;6.42
62930;BMP280;49036;42.782;23.108;2023-04-24T01:15:35;-14255.56;;;6.44
62930;BMP280;49036;42.782;23.108;2023-04-24T01:18:00;-14257.81;;;6.51
62930;BMP280;49036;42.782;23.108;2023-04-24T01:20:26;-14252.97;;;6.36
62930;BMP280;49036;42.782;23.108;2023-04-24T01:22:54;-14252.97;;;6.36
62930;BMP280;49036;42.782;23.108;2023-04-24T01:25:20;-14259.53;;;6.56
62930;BMP280;49036;42.782;23.108;2023-04-24T01:27:45;-14261.94;;;6.63
62930;BMP280;49036;42.782;23.108;2023-04-24T01:30:11;-14264.72;;;6.71
62930;BMP280;49036;42.782;23.108;2023-04-24T01:32:37;-14263.84;;;6.68
62930;BMP280;49036;42.782;23.108;2023-04-24T01:35:03;-14264.03;;;6.69
62930;BMP280;49036;42.782;23.108;2023-04-24T01:37:29;-14261.94;;;6.63
62930;BMP280;49036;42.782;23.108;2023-04-24T01:39:55;-14257.81;;;6.51
62930;BMP280;49036;42.782;23.108;2023-04-24T01:42:20;-14253.66;;;6.38
62930;BMP280;49036;42.782;23.108;2023-04-24T01:44:46;-14249.50;;;6.26
62930;BMP280;49036;42.782;23.108;2023-04-24T01:47:12;-14245.72;;;6.15
62930;BMP280;49036;42.782;23.108;2023-04-24T01:49:38;-14244.84;;;6.13
62930;BMP280;49036;42.782;23.108;2023-04-24T01:52:04;-14245.00;;;6.13
62930;BMP280;49036;42.782;23.108;2023-04-24T01:54:30;-14242.44;;;6.05
62930;BMP280;49036;42.782;23.108;2023-04-24T01:56:55;-14240.34;;;5.99
62930;BMP280;49036;42.782;23.108;2023-04-24T01:59:21;-14238.97;;;5.95
62930;BMP280;49036;42.782;23.108;2023-04-24T02:01:48;-14232.41;;;5.76
62930;BMP280;49036;42.782;23.108;2023-04-24T02:04:13;-14228.25;;;5.64
62930;BMP280;49036;42.782;23.108;2023-04-24T02:06:40;-14222.72;;;5.47
62930;BMP280;49036;42.782;23.108;2023-04-24T02:09:06;-14218.41;;;5.35
62930;BMP280;49036;42.782;23.108;2023-04-24T02:11:32;-14218.41;;;5.35
62930;BMP280;49036;42.782;23.108;2023-04-24T02:13:57;-14217.72;;;5.33
62930;BMP280;49036;42.782;23.108;2023-04-24T02:16:23;-14215.66;;;5.27
62930;BMP280;49036;42.782;23.108;2023-04-24T02:18:48;-14211.00;;;5.13
62930;BMP280;49036;42.782;23.108;2023-04-24T02:21:14;-14210.81;;;5.12
62930;BMP280;49036;42.782;23.108;2023-04-24T02:23:39;-14207.72;;;5.03
62930;BMP280;49036;42.782;23.108;2023-04-24T02:26:05;-14203.91;;;4.92
62930;BMP280;49036;42.782;23.108;2023-04-24T02:28:31;-14203.03;;;4.89
62930;BMP280;49036;42.782;23.108;2023-04-24T02:30:56;-14202.69;;;4.88
62930;BMP280;49036;42.782;23.108;2023-04-24T02:33:23;-14204.25;;;4.93
62930;BMP280;49036;42.782;23.108;2023-04-24T02:35:48;-14205.63;;;4.97
62930;BMP280;49036;42.782;23.108;2023-04-24T02:38:14;-14205.13;;;4.96
62930;BMP280;49036;42.782;23.108;2023-04-24T02:40:39;-14202.69;;;4.88
62930;BMP280;49036;42.782;23.108;2023-04-24T02:43:05;-14198.88;;;4.77
62930;BMP280;49036;42.782;23.108;2023-04-24T02:45:30;-14196.66;;;4.71
62930;BMP280;49036;42.782;23.108;2023-04-24T02:47:56;-14195.09;;;4.66
62930;BMP280;49036;42.782;23.108;2023-04-24T02:50:21;-14194.22;;;4.63
62930;BMP280;49036;42.782;23.108;2023-04-24T02:52:47;-14195.78;;;4.68
62930;BMP280;49036;42.782;23.108;2023-04-24T02:55:13;-14196.31;;;4.70
62930;BMP280;49036;42.782;23.108;2023-04-24T02:57:39;-14197.16;;;4.72
62930;BMP280;49036;42.782;23.108;2023-04-24T03:00:05;-14199.25;;;4.78
62930;BMP280;49036;42.782;23.108;2023-04-24T03:02:32;-14199.41;;;4.79
62930;BMP280;49036;42.782;23.108;2023-04-24T03:04:57;-14199.75;;;4.80
62930;BMP280;49036;42.782;23.108;2023-04-24T03:07:23;-14201.47;;;4.85
62930;BMP280;49036;42.782;23.108;2023-04-24T03:09:49;-14202.88;;;4.89
62930;BMP280;49036;42.782;23.108;2023-04-24T03:12:15;-14200.09;;;4.81
62930;BMP280;49036;42.782;23.108;2023-04-24T03:14:43;-14200.78;;;4.83
62930;BMP280;49036;42.782;23.108;2023-04-24T03:17:08;-14198.38;;;4.76
62930;BMP280;49036;42.782;23.108;2023-04-24T03:19:34;-14198.22;;;4.75
62930;BMP280;49036;42.782;23.108;2023-04-24T03:22:01;-14199.75;;;4.80
62930;BMP280;49036;42.782;23.108;2023-04-24T03:24:27;-14202.19;;;4.87
62930;BMP280;49036;42.782;23.108;2023-04-24T03:26:53;-14203.91;;;4.92
62930;BMP280;49036;42.782;23.108;2023-04-24T03:29:19;-14203.03;;;4.89
62930;BMP280;49036;42.782;23.108;2023-04-24T03:31:44;-14207.53;;;5.03
62930;BMP280;49036;42.782;23.108;2023-04-24T03:34:10;-14207.53;;;5.03
62930;BMP280;49036;42.782;23.108;2023-04-24T03:36:36;-14209.78;;;5.09
62930;BMP280;49036;42.782;23.108;2023-04-24T03:39:01;-14211.50;;;5.14
62930;BMP280;49036;42.782;23.108;2023-04-24T03:41:26;-14215.66;;;5.27
62930;BMP280;49036;42.782;23.108;2023-04-24T03:43:52;-14221.34;;;5.43
62930;BMP280;49036;42.782;23.108;2023-04-24T03:46:17;-14227.56;;;5.62
62930;BMP280;49036;42.782;23.108;2023-04-24T03:48:43;-14231.53;;;5.73
62930;BMP280;49036;42.782;23.108;2023-04-24T03:51:08;-14233.44;;;5.79
62930;BMP280;49036;42.782;23.108;2023-04-24T03:53:34;-14241.03;;;6.01
62930;BMP280;49036;42.782;23.108;2023-04-24T03:56:00;-14242.25;;;6.05
62930;BMP280;49036;42.782;23.108;2023-04-24T03:58:25;-14248.47;;;6.23
62930;BMP280;49036;42.782;23.108;2023-04-24T04:00:51;-14254.69;;;6.42
62930;BMP280;49036;42.782;23.108;2023-04-24T04:03:16;-14259.88;;;6.57
62930;BMP280;49036;42.782;23.108;2023-04-24T04:05:42;-14268.00;;;6.81
62930;BMP280;49036;42.782;23.108;2023-04-24T04:08:07;-14275.09;;;7.02
62930;BMP280;49036;42.782;23.108;2023-04-24T04:10:33;-14279.91;;;7.16
62930;BMP280;49036;42.782;23.108;2023-04-24T04:12:58;-14285.47;;;7.32
62930;BMP280;49036;42.782;23.108;2023-04-24T04:15:24;-14288.22;;;7.40
62930;BMP280;49036;42.782;23.108;2023-04-24T04:17:49;-14293.06;;;7.54
62930;BMP280;49036;42.782;23.108;2023-04-24T04:20:15;-14299.81;;;7.74
62930;BMP280;49036;42.782;23.108;2023-04-24T04:22:40;-14315.88;;;8.21
62930;BMP280;49036;42.782;23.108;2023-04-24T04:25:06;-14316.06;;;8.22
62930;BMP280;49036;42.782;23.108;2023-04-24T04:27:32;-14317.59;;;8.27
62930;BMP280;49036;42.782;23.108;2023-04-24T04:30:01;-14322.09;;;8.40
62930;BMP280;49036;42.782;23.108;2023-04-24T04:32:31;-14324.88;;;8.48
62930;BMP280;49036;42.782;23.108;2023-04-24T04:34:58;-14325.22;;;8.49
62930;BMP280;49036;42.782;23.108;2023-04-24T04:37:32;-14327.63;;;8.56
62930;BMP280;49036;42.782;23.108;2023-04-24T04:39:59;-14331.78;;;8.68
62930;BMP280;49036;42.782;23.108;2023-04-24T04:42:25;-14334.53;;;8.76
62930;BMP280;49036;42.782;23.108;2023-04-24T04:44:50;-14341.97;;;8.98
62930;BMP280;49036;42.782;23.108;2023-04-24T04:47:17;-14343.88;;;9.04
62930;BMP280;49036;42.782;23.108;2023-04-24T04:49:43;-14352.53;;;9.29
62930;BMP280;49036;42.782;23.108;2023-04-24T04:52:09;-14361.34;;;9.55
62930;BMP280;49036;42.782;23.108;2023-04-24T04:54:34;-14367.22;;;9.72
62930;BMP280;49036;42.782;23.108;2023-04-24T04:57:00;-14373.44;;;9.91
62930;BMP280;49036;42.782;23.108;2023-04-24T04:59:27;-14383.81;;;10.21
62930;BMP280;49036;42.782;23.108;2023-04-24T05:01:52;-14385.91;;;10.27
62930;BMP280;49036;42.782;23.108;2023-04-24T05:04:18;-14392.13;;;10.46
62930;BMP280;49036;42.782;23.108;2023-04-24T05:06:43;-14392.81;;;10.48
62930;BMP280;49036;42.782;23.108;2023-04-24T05:09:09;-14390.91;;;10.42
62930;BMP280;49036;42.782;23.108;2023-04-24T05:11:35;-14392.66;;;10.47
62930;BMP280;49036;42.782;23.108;2023-04-24T05:14:00;-14398.88;;;10.65
62930;BMP280;49036;42.782;23.108;2023-04-24T05:16:26;-14405.63;;;10.85
62930;BMP280;49036;42.782;23.108;2023-04-24T05:18:52;-14406.13;;;10.87
62930;BMP280;49036;42.782;23.108;2023-04-24T05:21:18;-14417.56;;;11.20
62930;BMP280;49036;42.782;23.108;2023-04-24T05:23:43;-14428.44;;;11.52
62930;BMP280;49036;42.782;23.108;2023-04-24T05:26:08;-14440.41;;;11.87
62930;BMP280;49036;42.782;23.108;2023-04-24T05:28:34;-14449.75;;;12.15
62930;BMP280;49036;42.782;23.108;2023-04-24T05:31:02;-14446.63;;;12.06
62930;BMP280;49036;42.782;23.108;2023-04-24T05:33:28;-14444.38;;;11.99
62930;BMP280;49036;42.782;23.108;2023-04-24T05:35:53;-14445.25;;;12.02
62930;BMP280;49036;42.782;23.108;2023-04-24T05:38:19;-14459.44;;;12.43
62930;BMP280;49036;42.782;23.108;2023-04-24T05:40:45;-14469.47;;;12.73
62930;BMP280;49036;42.782;23.108;2023-04-24T05:43:10;-14458.56;;;12.41
62930;BMP280;49036;42.782;23.108;2023-04-24T05:45:35;-14481.56;;;13.08
62930;BMP280;49036;42.782;23.108;2023-04-24T05:48:02;-14494.91;;;13.47
62930;BMP280;49036;42.782;23.108;2023-04-24T05:50:27;-14510.31;;;13.92
62930;BMP280;49036;42.782;23.108;2023-04-24T05:52:53;-14521.91;;;14.26
62930;BMP280;49036;42.782;23.108;2023-04-24T05:55:19;-14520.00;;;14.21
62930;BMP280;49036;42.782;23.108;2023-04-24T05:57:44;-14518.97;;;14.18
62930;BMP280;49036;42.782;23.108;2023-04-24T06:00:11;-14515.50;;;14.08
62930;BMP280;49036;42.782;23.108;2023-04-24T06:02:38;-14513.94;;;14.03
62930;BMP280;49036;42.782;23.108;2023-04-24T06:05:04;-14518.63;;;14.17
62930;BMP280;49036;42.782;23.108;2023-04-24T06:07:30;-14521.38;;;14.25
62930;BMP280;49036;42.782;23.108;2023-04-24T06:09:56;-14517.22;;;14.13
62930;BMP280;49036;42.782;23.108;2023-04-24T06:12:22;-14524.50;;;14.34
62930;BMP280;49036;42.782;23.108;2023-04-24T06:14:48;-14526.94;;;14.41
62930;BMP280;49036;42.782;23.108;2023-04-24T06:17:13;-14535.75;;;14.67
62930;BMP280;49036;42.782;23.108;2023-04-24T06:19:39;-14548.56;;;15.05
62930;BMP280;49036;42.782;23.108;2023-04-24T06:22:05;-14556.69;;;15.28
62930;BMP280;49036;42.782;23.108;2023-04-24T06:24:31;-14564.47;;;15.51
62930;BMP280;49036;42.782;23.108;2023-04-24T06:26:56;-14576.25;;;15.86
62930;BMP280;49036;42.782;23.108;2023-04-24T06:29:24;-14588.22;;;16.21
62930;BMP280;49036;42.782;23.108;2023-04-24T06:31:49;-14580.94;;;16.00
62930;BMP280;49036;42.782;23.108;2023-04-24T06:34:15;-14586.31;;;16.15
62930;BMP280;49036;42.782;23.108;2023-04-24T06:36:40;-14592.38;;;16.33
62930;BMP280;49036;42.782;23.108;2023-04-24T06:39:06;-14584.06;;;16.09
62930;BMP280;49036;42.782;23.108;2023-04-24T06:41:32;-14581.81;;;16.02
62930;BMP280;49036;42.782;23.108;2023-04-24T06:43:57;-14594.44;;;16.39
62930;BMP280;49036;42.782;23.108;2023-04-24T06:46:23;-14591.84;;;16.31
62930;BMP280;49036;42.782;23.108;2023-04-24T06:48:54;-14593.59;;;16.37
62930;BMP280;49036;42.782;23.108;2023-04-24T06:51:24;-14584.94;;;16.11
62930;BMP280;49036;42.782;23.108;2023-04-24T06:53:51;-14569.69;;;15.67
62930;BMP280;49036;42.782;23.108;2023-04-24T06:56:17;-14564.16;;;15.50
62930;BMP280;49036;42.782;23.108;2023-04-24T06:58:42;-14565.88;;;15.55
62930;BMP280;49036;42.782;23.108;2023-04-24T07:01:09;-14570.38;;;15.69
62930;BMP280;49036;42.782;23.108;2023-04-24T07:03:35;-14570.53;;;15.69
62930;BMP280;49036;42.782;23.108;2023-04-24T07:06:00;-14560.50;;;15.40
62930;BMP280;49036;42.782;23.108;2023-04-24T07:08:26;-14546.47;;;14.99
62930;BMP280;49036;42.782;23.108;2023-04-24T07:10:53;-14538.19;;;14.74
62930;BMP280;49036;42.782;23.108;2023-04-24T07:13:18;-14538.34;;;14.75
62930;BMP280;49036;42.782;23.108;2023-04-24T07:15:43;-14542.31;;;14.86
62930;BMP280;49036;42.782;23.108;2023-04-24T07:18:09;-14547.69;;;15.02
62930;BMP280;49036;42.782;23.108;2023-04-24T07:20:35;-14545.44;;;14.95
62930;BMP280;49036;42.782;23.108;2023-04-24T07:23:01;-14550.28;;;15.10
62930;BMP280;49036;42.782;23.108;2023-04-24T07:25:27;-14545.97;;;14.97
62930;BMP280;49036;42.782;23.108;2023-04-24T07:27:52;-14550.81;;;15.11
62930;BMP280;49036;42.782;23.108;2023-04-24T07:30:18;-14553.25;;;15.18
62930;BMP280;49036;42.782;23.108;2023-04-24T07:32:43;-14557.91;;;15.32
62930;BMP280;49036;42.782;23.108;2023-04-24T07:35:09;-14570.72;;;15.70
62930;BMP280;49036;42.782;23.108;2023-04-24T07:37:35;-14575.91;;;15.85
62930;BMP280;49036;42.782;23.108;2023-04-24T07:40:01;-14579.72;;;15.96
62930;BMP280;49036;42.782;23.108;2023-04-24T07:42:27;-14589.94;;;16.26
62930;BMP280;49036;42.782;23.108;2023-04-24T07:44:55;-14588.72;;;16.22
62930;BMP280;49036;42.782;23.108;2023-04-24T07:49:30;-14603.97;;;16.67
62930;BMP280;49036;42.782;23.108;2023-04-24T07:51:56;-14610.19;;;16.85
62930;BMP280;49036;42.782;23.108;2023-04-24T07:54:21;-14617.47;;;17.07
62930;BMP280;49036;42.782;23.108;2023-04-24T07:56:47;-14621.09;;;17.17
62930;BMP280;49036;42.782;23.108;2023-04-24T07:59:13;-14628.72;;;17.40
62930;BMP280;49036;42.782;23.108;2023-04-24T08:02:39;-14638.94;;;17.69
62930;BMP280;49036;42.782;23.108;2023-04-24T08:05:05;-14635.31;;;17.59
62930;BMP280;49036;42.782;23.108;2023-04-24T08:07:31;-14632.88;;;17.52
62930;BMP280;49036;42.782;23.108;2023-04-24T08:09:56;-14635.66;;;17.60
62930;BMP280;49036;42.782;23.108;2023-04-24T08:12:22;-14633.06;;;17.52
62930;BMP280;49036;42.782;23.108;2023-04-24T08:14:47;-14636.19;;;17.61
62930;BMP280;49036;42.782;23.108;2023-04-24T08:17:13;-14644.16;;;17.85
62930;BMP280;49036;42.782;23.108;2023-04-24T08:19:40;-14648.66;;;17.98
62930;BMP280;49036;42.782;23.108;2023-04-24T08:22:09;-14656.09;;;18.20
62930;BMP280;49036;42.782;23.108;2023-04-24T08:24:35;-14660.59;;;18.33
62930;BMP280;49036;42.782;23.108;2023-04-24T08:27:01;-14661.97;;;18.37
62930;BMP280;49036;42.782;23.108;2023-04-24T08:29:27;-14664.41;;;18.44
62930;BMP280;49036;42.782;23.108;2023-04-24T08:31:52;-14662.16;;;18.37
62930;BMP280;49036;42.782;23.108;2023-04-24T08:34:20;-14663.38;;;18.41
62930;BMP280;49036;42.782;23.108;2023-04-24T08:36:46;-14665.97;;;18.49
62930;BMP280;49036;42.782;23.108;2023-04-24T08:39:11;-14674.28;;;18.73
62930;BMP280;49036;42.782;23.108;2023-04-24T08:41:37;-14697.31;;;19.40
62930;BMP280;49036;42.782;23.108;2023-04-24T08:46:04;-14705.28;;;19.64
62930;BMP280;49036;42.782;23.108;2023-04-24T08:48:30;-14709.63;;;19.76
62930;BMP280;49036;42.782;23.108;2023-04-24T08:50:57;-14721.22;;;20.10
62930;BMP280;49036;42.782;23.108;2023-04-24T08:53:24;-14720.19;;;20.07
62930;BMP280;49036;42.782;23.108;2023-04-24T08:55:51;-14691.44;;;19.23
62930;BMP280;49036;42.782;23.108;2023-04-24T08:58:17;-14698.19;;;19.43
62930;BMP280;49036;42.782;23.108;2023-04-24T09:02:14;-14702.53;;;19.56
62930;BMP280;49036;42.782;23.108;2023-04-24T09:04:42;-14707.38;;;19.70
62930;BMP280;49036;42.782;23.108;2023-04-24T09:07:10;-14698.72;;;19.44
62930;BMP280;49036;42.782;23.108;2023-04-24T09:10:25;-14718.28;;;20.02
62930;BMP280;49036;42.782;23.108;2023-04-24T09:12:51;-14699.22;;;19.46
62930;BMP280;49036;42.782;23.108;2023-04-24T09:15:18;-14732.16;;;20.42
62930;BMP280;49036;42.782;23.108;2023-04-24T09:17:44;-14750.34;;;20.95
62930;BMP280;49036;42.782;23.108;2023-04-24T09:20:10;-14768.00;;;21.47
62930;BMP280;49036;42.782;23.108;2023-04-24T09:22:36;-14776.16;;;21.71
62930;BMP280;49036;42.782;23.108;2023-04-24T09:25:03;-14778.75;;;21.79
62930;BMP280;49036;42.782;23.108;2023-04-24T09:27:31;-14788.63;;;22.07
62930;BMP280;49036;42.782;23.108;2023-04-24T09:29:57;-14782.56;;;21.90
62930;BMP280;49036;42.782;23.108;2023-04-24T09:32:23;-14792.78;;;22.20
62930;BMP280;49036;42.782;23.108;2023-04-24T09:35:14;-14789.31;;;22.10
62930;BMP280;49036;42.782;23.108;2023-04-24T09:37:45;-14772.00;;;21.59
62930;BMP280;49036;42.782;23.108;2023-04-24T09:40:20;-14781.69;;;21.87
62930;BMP280;49036;42.782;23.108;2023-04-24T09:42:51;-14801.09;;;22.44
62930;BMP280;49036;42.782;23.108;2023-04-24T09:45:17;-14821.22;;;23.03
62930;BMP280;49036;42.782;23.108;2023-04-24T09:47:43;-14842.69;;;23.66
62930;BMP280;49036;42.782;23.108;2023-04-24T09:50:12;-14843.03;;;23.67
62930;BMP280;49036;42.782;23.108;2023-04-24T09:53:05;-14856.38;;;24.06
62930;BMP280;49036;42.782;23.108;2023-04-24T09:55:39;-14863.31;;;24.26
62930;BMP280;49036;42.782;23.108;2023-04-24T09:58:07;-14867.81;;;24.39
62930;BMP280;49036;42.782;23.108;2023-04-24T10:00:33;-14810.97;;;22.73
62930;BMP280;49036;42.782;23.108;2023-04-24T10:03:00;-14811.69;;;22.75
62930;BMP280;49036;42.782;23.108;2023-04-24T10:05:30;-14818.09;;;22.94
62930;BMP280;49036;42.782;23.108;2023-04-24T10:07:58;-14841.81;;;23.63
62930;BMP280;49036;42.782;23.108;2023-04-24T10:10:23;-14876.66;;;24.65
62930;BMP280;49036;42.782;23.108;2023-04-24T10:12:50;-14900.41;;;25.34
62930;BMP280;49036;42.782;23.108;2023-04-24T10:15:16;-14875.81;;;24.62
62930;BMP280;49036;42.782;23.108;2023-04-24T10:17:47;-14872.00;;;24.51
62930;BMP280;49036;42.782;23.108;2023-04-24T10:20:18;-14866.44;;;24.35
62930;BMP280;49036;42.782;23.108;2023-04-24T10:22:48;-14920.50;;;25.93
62930;BMP280;49036;42.782;23.108;2023-04-24T10:25:16;-14879.63;;;24.73
62930;BMP280;49036;42.782;23.108;2023-04-24T10:27:43;-14889.16;;;25.01
62930;BMP280;49036;42.782;23.108;2023-04-24T10:30:19;-14906.31;;;25.51
62930;BMP280;49036;42.782;23.108;2023-04-24T10:32:45;-14862.97;;;24.25
62930;BMP280;49036;42.782;23.108;2023-04-24T10:35:13;-14798.50;;;22.36
62930;BMP280;49036;42.782;23.108;2023-04-24T10:37:42;-14794.34;;;22.24
62930;BMP280;49036;42.782;23.108;2023-04-24T10:40:09;-14804.56;;;22.54
62930;BMP280;49036;42.782;23.108;2023-04-24T10:43:03;-14847.72;;;23.80
62930;BMP280;49036;42.782;23.108;2023-04-24T10:45:31;-14865.06;;;24.31
62930;BMP280;49036;42.782;23.108;2023-04-24T10:50:24;-14849.09;;;23.84
62930;BMP280;49036;42.782;23.108;2023-04-24T10:52:50;-14794.69;;;22.25
62930;BMP280;49036;42.782;23.108;2023-04-24T10:55:41;-14771.13;;;21.56
62930;BMP280;49036;42.782;23.108;2023-04-24T10:58:07;-14749.47;;;20.93
62930;BMP280;49036;42.782;23.108;2023-04-24T11:00:36;-14740.81;;;20.68
62930;BMP280;49036;42.782;23.108;2023-04-24T11:03:05;-14747.91;;;20.88
62930;BMP280;49036;42.782;23.108;2023-04-24T11:08:21;-14715.00;;;19.92
62930;BMP280;49036;42.782;23.108;2023-04-24T11:10:47;-14735.63;;;20.52
62930;BMP280;49036;42.782;23.108;2023-04-24T11:13:22;-14779.97;;;21.82
62930;BMP280;49036;42.782;23.108;2023-04-24T11:16:19;-14802.66;;;22.49
62930;BMP280;49036;42.782;23.108;2023-04-24T11:18:50;-14808.38;;;22.65
62930;BMP280;49036;42.782;23.108;2023-04-24T11:21:20;-14851.19;;;23.90
62930;BMP280;49036;42.782;23.108;2023-04-24T11:27:21;-14944.28;;;26.62
62930;BMP280;49036;42.782;23.108;2023-04-24T11:32:35;-14842.34;;;23.65
62930;BMP280;49036;42.782;23.108;2023-04-24T11:35:04;-14788.81;;;22.08
62930;BMP280;49036;42.782;23.108;2023-04-24T11:37:41;-14779.78;;;21.82
62930;BMP280;49036;42.782;23.108;2023-04-24T11:40:10;-14762.63;;;21.31
62930;BMP280;49036;42.782;23.108;2023-04-24T11:42:40;-14757.44;;;21.16
62930;BMP280;49036;42.782;23.108;2023-04-24T11:45:14;-14757.09;;;21.15
62930;BMP280;49036;42.782;23.108;2023-04-24T11:47:40;-14749.28;;;20.92
62930;BMP280;49036;42.782;23.108;2023-04-24T11:51:34;-14827.44;;;23.21
62930;BMP280;49036;42.782;23.108;2023-04-24T11:53:59;-14838.38;;;23.53
62930;BMP280;49036;42.782;23.108;2023-04-24T11:56:25;-14852.91;;;23.95
62930;BMP280;49036;42.782;23.108;2023-04-24T11:58:53;-14868.88;;;24.42
62930;BMP280;49036;42.782;23.108;2023-04-24T12:01:20;-14904.56;;;25.46
62930;BMP280;49036;42.782;23.108;2023-04-24T12:05:42;-14840.44;;;23.59
62930;BMP280;49036;42.782;23.108;2023-04-24T12:08:08;-14804.56;;;22.54
62930;BMP280;49036;42.782;23.108;2023-04-24T12:10:35;-14781.53;;;21.87
62930;BMP280;49036;42.782;23.108;2023-04-24T12:13:01;-14755.19;;;21.10
62930;BMP280;49036;42.782;23.108;2023-04-24T12:15:27;-14728.31;;;20.31
62930;BMP280;49036;42.782;23.108;2023-04-24T12:17:54;-14723.31;;;20.16
62930;BMP280;49036;42.782;23.108;2023-04-24T12:20:28;-14720.53;;;20.08
62930;BMP280;49036;42.782;23.108;2023-04-24T12:22:59;-14720.19;;;20.07
62930;BMP280;49036;42.782;23.108;2023-04-24T12:25:31;-14748.59;;;20.90
62930;BMP280;49036;42.782;23.108;2023-04-24T12:30:29;-14742.88;;;20.74
62930;BMP280;49036;42.782;23.108;2023-04-24T12:32:57;-14726.25;;;20.25
62930;BMP280;49036;42.782;23.108;2023-04-24T12:35:24;-14716.22;;;19.96
62930;BMP280;49036;42.782;23.108;2023-04-24T12:37:50;-14696.47;;;19.38
62930;BMP280;49036;42.782;23.108;2023-04-24T12:40:17;-14696.28;;;19.37
62930;BMP280;49036;42.782;23.108;2023-04-24T12:42:45;-14697.66;;;19.41
62930;BMP280;49036;42.782;23.108;2023-04-24T12:45:11;-14697.66;;;19.41
62930;BMP280;49036;42.782;23.108;2023-04-24T12:47:38;-14704.94;;;19.63
62930;BMP280;49036;42.782;23.108;2023-04-24T12:50:04;-14700.09;;;19.48
62930;BMP280;49036;42.782;23.108;2023-04-24T12:52:31;-14691.25;;;19.23
62930;BMP280;49036;42.782;23.108;2023-04-24T12:54:59;-14706.50;;;19.67
62930;BMP280;49036;42.782;23.108;2023-04-24T12:57:26;-14683.13;;;18.99
62930;BMP280;49036;42.782;23.108;2023-04-24T12:59:56;-14691.44;;;19.23
62930;BMP280;49036;42.782;23.108;2023-04-24T13:02:23;-14693.88;;;19.30
62930;BMP280;49036;42.782;23.108;2023-04-24T13:04:49;-14707.53;;;19.70
62930;BMP280;49036;42.782;23.108;2023-04-24T13:07:15;-14718.81;;;20.03
62930;BMP280;49036;42.782;23.108;2023-04-24T13:09:41;-14715.84;;;19.95
62930;BMP280;49036;42.782;23.108;2023-04-24T13:13:54;-14723.13;;;20.16
62930;BMP280;49036;42.782;23.108;2023-04-24T13:16:20;-14725.03;;;20.21
62930;BMP280;49036;42.782;23.108;2023-04-24T13:18:45;-14730.25;;;20.37
62930;BMP280;49036;42.782;23.108;2023-04-24T13:21:11;-14725.38;;;20.23
62930;BMP280;49036;42.782;23.108;2023-04-24T13:23:36;-14730.94;;;20.39
62930;BMP280;49036;42.782;23.108;2023-04-24T13:26:02;-14824.84;;;23.13
62930;BMP280;49036;42.782;23.108;2023-04-24T13:28:28;-14919.13;;;25.89
62930;BMP280;49036;42.782;23.108;2023-04-24T13:30:54;-14905.59;;;25.49
62930;BMP280;49036;42.782;23.108;2023-04-24T13:33:20;-14903.34;;;25.43
62930;BMP280;49036;42.782;23.108;2023-04-24T13:35:45;-14884.13;;;24.87
62930;BMP280;49036;42.782;23.108;2023-04-24T13:38:11;-14911.16;;;25.66
62930;BMP280;49036;42.782;23.108;2023-04-24T13:40:36;-14952.22;;;26.86
62930;BMP280;49036;42.782;23.108;2023-04-24T13:43:02;-14985.16;;;27.82
62930;BMP280;49036;42.782;23.108;2023-04-24T13:45:28;-15012.91;;;28.63
62930;BMP280;49036;42.782;23.108;2023-04-24T13:47:53;-15084.16;;;30.71
62930;BMP280;49036;42.782;23.108;2023-04-24T13:50:20;-15098.53;;;31.13
62930;BMP280;49036;42.782;23.108;2023-04-24T13:52:45;-15100.78;;;31.19
62930;BMP280;49036;42.782;23.108;2023-04-24T13:55:11;-15076.00;;;30.47
62930;BMP280;49036;42.782;23.108;2023-04-24T13:57:36;-15026.78;;;29.03
62930;BMP280;49036;42.782;23.108;2023-04-24T14:00:02;-14962.28;;;27.15
62930;BMP280;49036;42.782;23.108;2023-04-24T14:02:29;-14936.63;;;26.40
62930;BMP280;49036;42.782;23.108;2023-04-24T14:04:55;-14913.25;;;25.72
62930;BMP280;49036;42.782;23.108;2023-04-24T14:07:20;-14848.94;;;23.84
62930;BMP280;49036;42.782;23.108;2023-04-24T14:09:46;-14831.25;;;23.32
62930;BMP280;49036;42.782;23.108;2023-04-24T14:14:37;-14809.06;;;22.67